Tawakoni's Hourly Summary for Friday, May 11, 2018
Hour Temp
(f)
RH
(%)
Solar Rad.
(MJ/m2)
Rainfall
(in)
Wind
(mph)
5/11/2018 12:00 AM 71 61 0 0 6.75
5/11/2018 1:00 AM 72 63 0 0 8.56
5/11/2018 2:00 AM 71 65 0 0 9.45
5/11/2018 3:00 AM 70 66 0 0 9.48
5/11/2018 4:00 AM 68 73 0 0 8.27
5/11/2018 5:00 AM 67 77 0 0 7.93
5/11/2018 6:00 AM 66 83 0 0 7.55
5/11/2018 7:00 AM 65 88 0.03 0 6.9
5/11/2018 8:00 AM 67 88 0.27 0 6.55
5/11/2018 9:00 AM 69 81 0.71 0 9.12
5/11/2018 10:00 AM 73 69 1.44 0 11.56
5/11/2018 11:00 AM 75 60 1.87 0 12.58
5/11/2018 12:00 PM 77 53 2.68 0 13.55
5/11/2018 1:00 PM 80 50 3.02 0 13.34
5/11/2018 2:00 PM 81 47 2.75 0 12.54
5/11/2018 3:00 PM 82 47 2.02 0 11.74
5/11/2018 4:00 PM 82 46 1.91 0 11.02
5/11/2018 5:00 PM 84 42 2.19 0 11.27
5/11/2018 6:00 PM 83 44 1.42 0 10.12
5/11/2018 7:00 PM 83 43 0.95 0 9
5/11/2018 8:00 PM 80 46 0.33 0 5.54
5/11/2018 9:00 PM 77 54 0.01 0 4.55
5/11/2018 10:00 PM 74 60 0 0 4.19
5/11/2018 11:00 PM 74 63 0 0 5.82
Data Summary 74 61 21.60 0.00 9.06